createdAt,value
2022-10-02T00:01:33.742Z,15.91
2022-10-02T00:04:02.723Z,15.88
2022-10-02T00:06:39.844Z,15.91
2022-10-02T00:09:12.333Z,15.89
2022-10-02T00:11:44.776Z,15.91
2022-10-02T00:14:16.826Z,15.84
2022-10-02T00:16:48.432Z,15.81
2022-10-02T00:19:18.405Z,15.77
2022-10-02T00:21:59.007Z,15.75
2022-10-02T00:24:32.161Z,15.68
2022-10-02T00:27:06.525Z,15.67
2022-10-02T00:29:46.979Z,15.65
2022-10-02T00:32:24.153Z,15.70
2022-10-02T00:35:30.562Z,15.71
2022-10-02T00:38:04.595Z,15.72
2022-10-02T00:41:00.080Z,15.75
2022-10-02T00:43:35.889Z,15.75
2022-10-02T00:46:23.401Z,15.77
2022-10-02T00:49:08.765Z,15.76
2022-10-02T00:51:53.784Z,15.76
2022-10-02T00:54:32.685Z,15.77
2022-10-02T00:57:10.127Z,15.80
2022-10-02T00:59:51.559Z,15.78
2022-10-02T01:02:58.274Z,15.78
2022-10-02T01:05:27.438Z,15.78
2022-10-02T01:07:57.072Z,15.77
2022-10-02T01:10:26.688Z,15.74
2022-10-02T01:12:56.077Z,15.74
2022-10-02T01:15:32.304Z,15.74
2022-10-02T01:18:02.168Z,15.68
2022-10-02T01:20:39.076Z,15.63
2022-10-02T01:23:18.420Z,15.55
2022-10-02T01:25:48.264Z,15.47
2022-10-02T01:28:16.399Z,15.39
2022-10-02T01:30:47.420Z,15.33
2022-10-02T01:33:16.008Z,15.36
2022-10-02T01:35:44.811Z,15.30
2022-10-02T01:38:15.660Z,15.15
2022-10-02T01:40:43.471Z,14.99
2022-10-02T01:43:15.932Z,14.87
2022-10-02T01:45:58.940Z,14.72
2022-10-02T01:48:40.790Z,14.63
2022-10-02T01:51:24.868Z,14.59
2022-10-02T01:54:00.384Z,14.57
2022-10-02T01:56:36.624Z,14.53
2022-10-02T01:59:14.972Z,14.49
2022-10-02T02:01:53.770Z,14.43
2022-10-02T02:04:25.369Z,14.42
2022-10-02T02:07:00.437Z,14.43
2022-10-02T02:09:33.635Z,14.42
2022-10-02T02:12:09.509Z,14.35
2022-10-02T02:14:43.729Z,14.29
2022-10-02T02:17:16.192Z,14.25
2022-10-02T02:19:50.140Z,14.17
2022-10-02T02:22:23.867Z,14.16
2022-10-02T02:24:56.983Z,14.11
2022-10-02T02:27:28.605Z,14.03
2022-10-02T02:30:03.799Z,13.99
2022-10-02T02:32:36.731Z,13.95
2022-10-02T02:35:11.575Z,13.90
2022-10-02T02:37:41.805Z,13.86
2022-10-02T02:40:14.809Z,13.85
2022-10-02T02:42:44.544Z,13.88
2022-10-02T02:45:17.610Z,13.83
2022-10-02T02:47:50.184Z,13.76
2022-10-02T02:50:22.860Z,13.73
2022-10-02T02:52:56.264Z,13.71
2022-10-02T02:55:30.279Z,13.69
2022-10-02T02:58:03.428Z,13.69
2022-10-02T03:00:32.890Z,13.67
2022-10-02T03:03:00.783Z,13.69
2022-10-02T03:05:30.664Z,13.68
2022-10-02T03:08:02.790Z,13.69
2022-10-02T03:10:45.387Z,13.64
2022-10-02T03:13:28.453Z,13.69
2022-10-02T03:16:11.810Z,13.70
2022-10-02T03:18:57.314Z,13.66
2022-10-02T03:21:31.587Z,13.69
2022-10-02T03:24:06.551Z,13.67
2022-10-02T03:26:41.143Z,13.67
2022-10-02T03:29:15.105Z,13.67
2022-10-02T03:31:45.534Z,13.68
2022-10-02T03:34:14.382Z,13.67
2022-10-02T03:36:42.496Z,13.68
2022-10-02T03:39:26.882Z,13.67
2022-10-02T03:41:55.562Z,13.68
2022-10-02T03:44:23.419Z,13.67
2022-10-02T03:46:52.640Z,13.69
2022-10-02T03:49:20.489Z,13.67
2022-10-02T03:51:48.307Z,13.67
2022-10-02T03:54:19.889Z,13.66
2022-10-02T03:56:55.463Z,13.64
2022-10-02T03:59:36.056Z,13.62
2022-10-02T04:02:10.535Z,13.63
2022-10-02T04:04:46.832Z,13.61
2022-10-02T04:07:23.737Z,13.63
2022-10-02T04:10:01.040Z,13.63
2022-10-02T04:12:34.220Z,13.59
2022-10-02T04:15:07.841Z,13.53
2022-10-02T04:17:44.356Z,13.55
2022-10-02T04:20:17.735Z,13.50
2022-10-02T04:22:50.745Z,13.55
2022-10-02T04:25:21.205Z,13.50
2022-10-02T04:27:54.528Z,13.55
2022-10-02T04:30:22.573Z,13.52
2022-10-02T04:32:52.184Z,13.47
2022-10-02T04:35:29.775Z,13.49
2022-10-02T04:38:16.508Z,13.55
2022-10-02T04:40:56.312Z,13.49
2022-10-02T04:43:44.066Z,13.70
2022-10-02T04:46:26.686Z,14.00
2022-10-02T04:49:21.609Z,14.32
2022-10-02T04:52:02.754Z,14.54
2022-10-02T04:54:48.218Z,14.68
2022-10-02T04:57:34.594Z,14.79
2022-10-02T05:00:09.389Z,15.19
2022-10-02T05:03:03.064Z,15.35
2022-10-02T05:05:45.907Z,15.26
2022-10-02T05:08:27.639Z,15.75
2022-10-02T05:11:10.563Z,16.26
2022-10-02T05:14:12.183Z,16.64
2022-10-02T05:16:58.930Z,16.88
2022-10-02T05:19:47.777Z,17.51
2022-10-02T05:22:45.995Z,17.67
2022-10-02T05:25:40.807Z,16.78
2022-10-02T05:28:32.907Z,17.05
2022-10-02T05:31:15.742Z,17.45
2022-10-02T05:33:59.431Z,16.67
2022-10-02T05:36:39.020Z,16.86
2022-10-02T05:39:10.356Z,16.76
2022-10-02T05:41:49.419Z,16.43
2022-10-02T05:44:21.511Z,16.43
2022-10-02T05:46:56.787Z,16.56
2022-10-02T05:49:33.651Z,16.27
2022-10-02T05:52:05.811Z,16.33
2022-10-02T05:54:44.560Z,16.43
2022-10-02T05:57:19.071Z,16.98
2022-10-02T05:59:58.032Z,16.89
2022-10-02T06:02:39.124Z,16.47
2022-10-02T06:05:16.116Z,16.30
2022-10-02T06:07:48.393Z,16.56
2022-10-02T06:10:20.626Z,16.44
2022-10-02T06:12:54.927Z,16.47
2022-10-02T06:15:27.631Z,16.10
2022-10-02T06:18:00.646Z,16.66
2022-10-02T06:20:35.117Z,16.42
2022-10-02T06:23:07.747Z,16.45
2022-10-02T06:25:44.017Z,16.19
2022-10-02T06:28:16.823Z,17.07
2022-10-02T06:30:47.996Z,16.77
2022-10-02T06:33:19.455Z,16.67
2022-10-02T06:36:21.434Z,16.78
2022-10-02T06:39:14.864Z,17.39
2022-10-02T06:41:54.192Z,17.67
2022-10-02T06:44:29.088Z,17.04
2022-10-02T06:47:12.472Z,16.79
2022-10-02T06:49:52.528Z,16.86
2022-10-02T06:52:33.311Z,17.08
2022-10-02T06:55:24.662Z,16.63
2022-10-02T06:58:05.986Z,17.04
2022-10-02T07:00:37.825Z,16.86
2022-10-02T07:03:23.016Z,17.20
2022-10-02T07:06:17.032Z,17.01
2022-10-02T07:09:06.802Z,17.74
2022-10-02T07:11:45.173Z,18.51
2022-10-02T07:14:30.281Z,18.06
2022-10-02T07:17:18.294Z,18.48
2022-10-02T07:20:12.172Z,18.43
2022-10-02T07:22:56.428Z,19.19
2022-10-02T07:25:47.210Z,19.72
2022-10-02T07:28:26.417Z,19.46
2022-10-02T07:31:03.819Z,19.91
2022-10-02T07:33:46.285Z,19.89
2022-10-02T07:36:23.184Z,19.79
2022-10-02T07:39:04.356Z,19.47
2022-10-02T07:42:04.058Z,19.86
2022-10-02T07:44:54.127Z,19.65
2022-10-02T07:47:38.380Z,19.48
2022-10-02T07:50:13.219Z,19.90
2022-10-02T07:52:52.421Z,20.13
2022-10-02T07:55:21.757Z,20.36
2022-10-02T07:58:00.420Z,20.34
2022-10-02T08:00:32.277Z,20.05
2022-10-02T08:03:04.708Z,19.67
2022-10-02T08:05:36.029Z,19.96
2022-10-02T08:08:15.780Z,20.03
2022-10-02T08:10:48.620Z,19.98
2022-10-02T08:13:20.569Z,20.06
2022-10-02T08:15:54.276Z,20.29
2022-10-02T08:18:34.960Z,20.45
2022-10-02T08:21:06.025Z,18.91
2022-10-02T08:23:38.959Z,20.14
2022-10-02T08:26:13.713Z,20.03
2022-10-02T08:28:47.556Z,20.17
2022-10-02T08:31:16.307Z,20.20
2022-10-02T08:33:45.720Z,19.92
2022-10-02T08:36:39.092Z,20.40
2022-10-02T08:39:24.742Z,20.35
2022-10-02T08:42:28.243Z,19.56
2022-10-02T08:45:41.003Z,19.11
2022-10-02T08:48:39.617Z,18.79
2022-10-02T08:51:33.216Z,19.43
2022-10-02T08:54:29.656Z,20.20
2022-10-02T08:57:26.438Z,19.89
2022-10-02T09:00:21.825Z,20.48
2022-10-02T09:03:29.053Z,20.53
2022-10-02T09:06:41.629Z,20.63
2022-10-02T09:09:51.284Z,20.31
2022-10-02T09:13:08.096Z,20.85
2022-10-02T09:16:00.201Z,21.47
2022-10-02T09:18:52.235Z,21.13
2022-10-02T09:21:34.418Z,21.56
2022-10-02T09:24:46.828Z,21.26
2022-10-02T09:27:53.659Z,21.13
2022-10-02T09:30:48.528Z,20.93
2022-10-02T09:33:49.679Z,21.60
2022-10-02T09:37:08.676Z,22.06
2022-10-02T09:40:10.613Z,21.79
2022-10-02T09:43:09.141Z,21.65
2022-10-02T09:46:14.778Z,21.51
2022-10-02T09:49:20.244Z,21.29
2022-10-02T09:52:40.635Z,22.04
2022-10-02T09:55:55.433Z,21.68
2022-10-02T09:59:01.820Z,21.69
2022-10-02T10:01:45.949Z,22.08
2022-10-02T10:05:05.183Z,22.62
2022-10-02T10:08:02.648Z,23.19
2022-10-02T10:10:49.467Z,22.51
2022-10-02T10:13:45.345Z,22.03
2022-10-02T10:16:35.673Z,21.82
2022-10-02T10:19:49.028Z,22.34
2022-10-02T10:23:01.672Z,22.65
2022-10-02T10:25:59.883Z,22.42
2022-10-02T10:29:04.786Z,22.81
2022-10-02T10:32:14.587Z,22.73
2022-10-02T10:35:17.429Z,22.95
2022-10-02T10:38:33.727Z,23.44
2022-10-02T10:41:31.328Z,23.41
2022-10-02T10:44:21.949Z,23.28
2022-10-02T10:47:03.787Z,23.38
2022-10-02T10:50:02.490Z,23.26
2022-10-02T10:52:51.552Z,22.15
2022-10-02T10:55:33.976Z,22.66
2022-10-02T10:58:16.641Z,22.49
2022-10-02T11:01:01.864Z,22.42
2022-10-02T11:04:13.431Z,22.44
2022-10-02T11:07:07.994Z,22.72
2022-10-02T11:10:08.715Z,23.03
2022-10-02T11:13:01.105Z,22.40
2022-10-02T11:15:52.484Z,22.40
2022-10-02T11:18:36.187Z,22.33
2022-10-02T11:21:20.165Z,22.56
2022-10-02T11:24:15.004Z,22.31
2022-10-02T11:27:04.827Z,22.44
2022-10-02T11:29:56.039Z,22.13
2022-10-02T11:33:00.346Z,22.32
2022-10-02T11:35:53.816Z,22.46
2022-10-02T11:38:49.949Z,22.15
2022-10-02T11:41:45.303Z,22.46
2022-10-02T11:44:24.757Z,22.40
2022-10-02T11:47:14.295Z,22.61
2022-10-02T11:50:07.781Z,22.18
2022-10-02T11:53:02.726Z,22.30
2022-10-02T11:55:46.218Z,22.24
2022-10-02T11:58:28.233Z,22.87
2022-10-02T12:01:07.951Z,22.53
2022-10-02T12:03:49.234Z,22.41
2022-10-02T12:06:32.497Z,22.33
2022-10-02T12:09:10.849Z,22.52
2022-10-02T12:11:49.289Z,22.50
2022-10-02T12:14:32.741Z,22.43
2022-10-02T12:17:16.485Z,22.36
2022-10-02T12:20:16.181Z,21.52
2022-10-02T12:23:12.200Z,21.30
2022-10-02T12:26:07.409Z,21.55
2022-10-02T12:28:45.504Z,21.89
2022-10-02T12:31:20.519Z,21.73
2022-10-02T12:33:56.868Z,21.50
2022-10-02T12:36:46.860Z,21.10
2022-10-02T12:39:35.416Z,21.21
2022-10-02T12:42:15.659Z,21.33
2022-10-02T12:45:02.757Z,21.35
2022-10-02T12:47:49.771Z,21.34
2022-10-02T12:50:25.734Z,20.64
2022-10-02T12:53:23.341Z,21.12
2022-10-02T12:56:17.065Z,21.42
2022-10-02T12:58:57.318Z,20.39
2022-10-02T13:02:10.568Z,21.43
2022-10-02T13:05:23.249Z,20.97
2022-10-02T13:08:23.153Z,20.55
2022-10-02T13:11:03.192Z,20.36
2022-10-02T13:13:48.178Z,19.99
2022-10-02T13:16:27.943Z,20.12
2022-10-02T13:19:08.739Z,20.24
2022-10-02T13:21:48.223Z,20.09
2022-10-02T13:24:34.112Z,20.11
2022-10-02T13:27:18.583Z,19.98
2022-10-02T13:29:55.611Z,19.87
2022-10-02T13:32:43.121Z,19.78
2022-10-02T13:35:30.204Z,19.70
2022-10-02T13:38:15.632Z,19.62
2022-10-02T13:40:55.812Z,19.71
2022-10-02T13:43:49.194Z,19.78
2022-10-02T13:46:34.299Z,19.73
2022-10-02T13:49:15.621Z,19.53
2022-10-02T13:51:53.656Z,19.50
2022-10-02T13:54:40.646Z,19.45
2022-10-02T13:57:23.082Z,19.09
2022-10-02T14:00:03.604Z,19.48
2022-10-02T14:02:46.642Z,19.53
2022-10-02T14:05:28.068Z,19.55
2022-10-02T14:08:16.529Z,19.73
2022-10-02T14:10:57.309Z,19.91
2022-10-02T14:13:42.235Z,19.93
2022-10-02T14:16:38.017Z,19.83
2022-10-02T14:19:37.034Z,19.73
2022-10-02T14:22:17.816Z,19.67
2022-10-02T14:25:03.681Z,19.61
2022-10-02T14:28:13.433Z,19.59
2022-10-02T14:31:02.851Z,19.52
2022-10-02T14:33:51.969Z,19.58
2022-10-02T14:36:26.336Z,19.77
2022-10-02T14:39:21.565Z,19.44
2022-10-02T14:42:06.718Z,19.50
2022-10-02T14:45:05.840Z,19.49
2022-10-02T14:47:54.092Z,19.47
2022-10-02T14:50:41.804Z,19.38
2022-10-02T14:53:35.570Z,19.00
2022-10-02T14:56:28.944Z,19.20
2022-10-02T14:59:13.824Z,18.91
2022-10-02T15:01:46.216Z,19.03
2022-10-02T15:04:39.894Z,19.02
2022-10-02T15:07:10.704Z,18.98
2022-10-02T15:09:59.099Z,18.88
2022-10-02T15:12:43.857Z,18.80
2022-10-02T15:15:16.273Z,18.78
2022-10-02T15:17:57.439Z,18.66
2022-10-02T15:20:31.776Z,18.76
2022-10-02T15:23:01.928Z,18.77
2022-10-02T15:25:45.080Z,17.82
2022-10-02T15:28:36.319Z,18.70
2022-10-02T15:31:17.251Z,18.67
2022-10-02T15:33:53.895Z,18.60
2022-10-02T15:36:39.992Z,18.53
2022-10-02T15:39:32.978Z,18.48
2022-10-02T15:42:06.798Z,18.46
2022-10-02T15:44:54.941Z,18.38
2022-10-02T15:47:38.971Z,18.34
2022-10-02T15:50:23.600Z,17.92
2022-10-02T15:53:04.906Z,18.25
2022-10-02T15:55:41.315Z,17.39
2022-10-02T15:58:24.395Z,18.17
2022-10-02T16:01:15.095Z,17.84
2022-10-02T16:03:50.902Z,17.91
2022-10-02T16:06:34.444Z,17.91
2022-10-02T16:09:32.578Z,17.73
2022-10-02T16:12:23.562Z,17.73
2022-10-02T16:15:03.113Z,17.75
2022-10-02T16:17:48.617Z,17.62
2022-10-02T16:20:28.449Z,17.45
2022-10-02T16:23:14.989Z,17.43
2022-10-02T16:26:10.662Z,17.39
2022-10-02T16:29:04.237Z,17.37
2022-10-02T16:31:52.977Z,17.00
2022-10-02T16:34:43.387Z,17.32
2022-10-02T16:37:24.870Z,16.90
2022-10-02T16:40:00.061Z,17.12
2022-10-02T16:42:40.143Z,17.18
2022-10-02T16:45:39.600Z,17.09
2022-10-02T16:48:14.479Z,16.98
2022-10-02T16:51:11.547Z,17.02
2022-10-02T16:53:46.252Z,17.11
2022-10-02T16:56:21.632Z,17.10
2022-10-02T16:59:01.118Z,17.16
2022-10-02T17:01:35.222Z,17.13
2022-10-02T17:04:18.353Z,17.12
2022-10-02T17:06:54.027Z,17.06
2022-10-02T17:09:27.824Z,16.93
2022-10-02T17:12:00.736Z,16.78
2022-10-02T17:14:42.915Z,16.78
2022-10-02T17:17:17.756Z,16.76
2022-10-02T17:19:51.233Z,16.73
2022-10-02T17:22:29.517Z,16.75
2022-10-02T17:25:06.940Z,16.59
2022-10-02T17:27:48.233Z,16.54
2022-10-02T17:30:23.830Z,16.46
2022-10-02T17:33:07.763Z,16.53
2022-10-02T17:35:43.737Z,16.53
2022-10-02T17:38:47.251Z,16.55
2022-10-02T17:41:36.304Z,16.53
2022-10-02T17:44:19.464Z,15.39
2022-10-02T17:47:15.014Z,16.52
2022-10-02T17:49:53.526Z,16.45
2022-10-02T17:52:48.303Z,16.38
2022-10-02T17:55:58.689Z,16.36
2022-10-02T17:58:33.024Z,16.34
2022-10-02T18:01:12.084Z,16.35
2022-10-02T18:03:55.698Z,16.27
2022-10-02T18:06:33.779Z,15.86
2022-10-02T18:09:25.612Z,16.25
2022-10-02T18:12:23.320Z,16.24
2022-10-02T18:15:20.808Z,15.65
2022-10-02T18:18:01.436Z,15.63
2022-10-02T18:20:35.462Z,16.12
2022-10-02T18:23:20.440Z,16.02
2022-10-02T18:26:03.119Z,15.98
2022-10-02T18:28:45.796Z,15.84
2022-10-02T18:31:51.043Z,15.70
2022-10-02T18:34:43.665Z,14.85
2022-10-02T18:37:27.962Z,15.65
2022-10-02T18:40:10.294Z,15.55
2022-10-02T18:42:50.264Z,15.37
2022-10-02T18:45:39.061Z,15.27
2022-10-02T18:48:21.076Z,15.15
2022-10-02T18:51:06.473Z,14.99
2022-10-02T18:53:56.247Z,14.91
2022-10-02T18:56:41.957Z,14.93
2022-10-02T18:59:19.896Z,14.74
2022-10-02T19:02:01.547Z,14.66
2022-10-02T19:04:53.964Z,14.61
2022-10-02T19:07:27.348Z,14.46
2022-10-02T19:10:26.259Z,14.30
2022-10-02T19:12:58.471Z,14.22
2022-10-02T19:15:29.793Z,14.25
2022-10-02T19:18:01.028Z,14.21
2022-10-02T19:20:50.210Z,14.21
2022-10-02T19:23:24.296Z,14.13
2022-10-02T19:25:54.732Z,14.06
2022-10-02T19:28:26.401Z,14.02
2022-10-02T19:30:57.577Z,13.86
2022-10-02T19:33:35.965Z,13.58
2022-10-02T19:36:06.315Z,13.42
2022-10-02T19:38:37.481Z,13.59
2022-10-02T19:41:10.004Z,13.33
2022-10-02T19:43:48.213Z,12.81
2022-10-02T19:46:19.931Z,13.63
2022-10-02T19:48:57.015Z,13.57
2022-10-02T19:51:25.922Z,13.51
2022-10-02T19:53:58.877Z,13.61
2022-10-02T19:56:31.988Z,13.50
2022-10-02T19:59:04.140Z,13.41
2022-10-02T20:01:42.263Z,13.32
2022-10-02T20:04:18.368Z,13.20
2022-10-02T20:06:52.379Z,13.23
2022-10-02T20:09:26.000Z,13.21
2022-10-02T20:11:58.283Z,13.31
2022-10-02T20:14:32.285Z,13.28
2022-10-02T20:17:10.972Z,12.27
2022-10-02T20:19:50.835Z,13.31
2022-10-02T20:22:31.296Z,13.30
2022-10-02T20:25:04.746Z,13.29
2022-10-02T20:27:39.628Z,13.22
2022-10-02T20:30:14.013Z,13.02
2022-10-02T20:32:47.549Z,13.21
2022-10-02T20:35:22.530Z,12.90
2022-10-02T20:37:53.113Z,13.05
2022-10-02T20:40:25.708Z,13.02
2022-10-02T20:43:01.123Z,13.11
2022-10-02T20:45:36.569Z,13.04
2022-10-02T20:48:25.797Z,12.93
2022-10-02T20:51:06.444Z,12.74
2022-10-02T20:54:05.405Z,12.90
2022-10-02T20:57:13.859Z,12.90
2022-10-02T21:00:12.934Z,12.85
2022-10-02T21:03:10.646Z,12.75
2022-10-02T21:05:58.301Z,12.47
2022-10-02T21:09:19.209Z,12.76
2022-10-02T21:12:10.780Z,12.46
2022-10-02T21:15:05.879Z,12.67
2022-10-02T21:18:01.699Z,12.54
2022-10-02T21:21:03.238Z,12.54
2022-10-02T21:24:14.225Z,12.41
2022-10-02T21:27:07.985Z,12.11
2022-10-02T21:29:47.904Z,12.39
2022-10-02T21:32:36.007Z,12.34
2022-10-02T21:35:13.911Z,12.35
2022-10-02T21:38:06.137Z,12.38
2022-10-02T21:41:08.379Z,12.32
2022-10-02T21:44:03.697Z,12.02
2022-10-02T21:47:03.600Z,12.26
2022-10-02T21:50:18.124Z,12.28
2022-10-02T21:53:43.106Z,11.91
2022-10-02T21:56:56.476Z,12.16
2022-10-02T21:59:55.843Z,12.15
2022-10-02T22:03:11.559Z,12.25
2022-10-02T22:06:09.323Z,12.31
2022-10-02T22:08:55.037Z,12.14
2022-10-02T22:11:32.545Z,12.20
2022-10-02T22:14:08.623Z,11.99
2022-10-02T22:16:51.531Z,11.83
2022-10-02T22:19:37.719Z,12.15
2022-10-02T22:22:17.174Z,12.23
2022-10-02T22:25:08.781Z,11.72
2022-10-02T22:27:55.666Z,12.05
2022-10-02T22:30:27.011Z,12.00
2022-10-02T22:33:11.989Z,11.88
2022-10-02T22:36:10.861Z,11.08
2022-10-02T22:38:42.111Z,11.81
2022-10-02T22:41:22.030Z,11.79
2022-10-02T22:43:54.033Z,11.49
2022-10-02T22:46:32.696Z,11.69
2022-10-02T22:49:06.931Z,11.67
2022-10-02T22:51:42.992Z,11.66
2022-10-02T22:54:21.200Z,11.63
2022-10-02T22:56:58.096Z,11.72
2022-10-02T22:59:32.848Z,11.61
2022-10-02T23:02:09.228Z,11.46
2022-10-02T23:04:45.392Z,11.70
2022-10-02T23:07:17.565Z,11.78
2022-10-02T23:09:51.662Z,11.82
2022-10-02T23:12:28.131Z,11.83
2022-10-02T23:15:15.934Z,11.92
2022-10-02T23:17:51.562Z,11.98
2022-10-02T23:20:28.607Z,11.94
2022-10-02T23:23:02.804Z,11.68
2022-10-02T23:25:35.040Z,11.75
2022-10-02T23:28:08.059Z,11.79
2022-10-02T23:30:42.118Z,11.60
2022-10-02T23:33:21.685Z,11.91
2022-10-02T23:35:56.261Z,11.99
2022-10-02T23:38:32.316Z,12.02
2022-10-02T23:41:23.534Z,12.16
2022-10-02T23:44:01.768Z,12.43
2022-10-02T23:46:34.773Z,12.56
2022-10-02T23:49:03.586Z,12.59
2022-10-02T23:51:46.199Z,12.43
2022-10-02T23:54:33.780Z,11.98
2022-10-02T23:57:29.816Z,11.84
